Huvudsida
METAR-TAF:

METAR-TAF

Flygplatser :

Agartala Airport

Agartala, Indien

latitud: 23-53-24N, longitud: 91-14-32E, höjd: 14 m

Aktuellt väderrapport

Denna rapport gjordes för 19 minuter sedan, klockan 08:40 UTC
Vind 6 kt från nordost
Temperatur 34°C
Fuktighet 60%
Tryck 1003 hPa
Sikt: 6000 m
Få moln på en höjd av 1800 ft
Spridda moln på en höjd av 2500 ft

METAR: VEAT 200840Z 05006KT 6000 FEW018 SCT025 34/25 Q1003 NOSIG

Tid: 14:29 (08:59 UTC)

Väderprognos

Denna rapport gjordes för 59 minuter sedan, klockan 08:00 UTC
Prognos gäller från 20 kl. 09 UTC till 20 kl. 18 UTC
Vind 4 kt från nord/nordost
Sikt: 6000 m
Få moln på en höjd av 1800 ft
Spridda moln på en höjd av 2500 ft
Få moln på en höjd av 3000 ft, Cumulonimbus.
Blir
från 20 kl. 13 UTC till 20 kl. 15 UTC
Vind kt från nord
Sikt: 4500 m
Spridda moln på en höjd av 1800 ft
lätt regn, fuktdis,

TAF: VEAT 200800Z 2009/2018 02004KT 6000 FEW018 SCT025 FEW030CB BECMG 2013/2015 00000KT 4500 -RA BR SCT018

Aktuella väderrapporter och prognoser från 4000 flygplatser (METAR- och TAF-rapporter).

De tillgängliga stationerna syns som gula och röda prickar på kartan.

För musen över prickarna för att se namnen på stationerna.

Klicka sedan för att få väderrapporter och prognoser.

För att ändra kartan: Klicka på de gröna knapparna med ett svart kors på för att zooma in; den gröna knappen med ett streck på för att zooma ut; eller på de gröna pilarna för angränsande kartor.


METAR-TAF: